createdAt,value
2022-11-25T00:01:36.145Z,12.52
2022-11-25T00:04:05.769Z,2.13
2022-11-25T00:06:35.814Z,9.38
2022-11-25T00:09:13.900Z,7.85
2022-11-25T00:11:47.203Z,8.35
2022-11-25T00:14:18.324Z,10.27
2022-11-25T00:16:50.461Z,8.80
2022-11-25T00:19:19.165Z,7.95
2022-11-25T00:21:47.766Z,18.55
2022-11-25T00:24:20.629Z,11.20
2022-11-25T00:26:50.414Z,15.50
2022-11-25T00:29:21.721Z,17.17
2022-11-25T00:31:50.477Z,15.05
2022-11-25T00:34:25.150Z,8.35
2022-11-25T00:36:58.329Z,11.23
2022-11-25T00:39:40.309Z,8.75
2022-11-25T00:42:35.172Z,10.77
2022-11-25T00:45:07.823Z,17.60
2022-11-25T00:47:45.326Z,20.70
2022-11-25T00:50:13.877Z,10.30
2022-11-25T00:52:44.006Z,25.27
2022-11-25T00:55:15.778Z,13.75
2022-11-25T00:57:54.108Z,16.88
2022-11-25T01:00:23.009Z,5.18
2022-11-25T01:03:11.970Z,11.70
2022-11-25T01:05:45.195Z,14.95
2022-11-25T01:08:15.567Z,14.70
2022-11-25T01:10:44.433Z,21.33
2022-11-25T01:13:15.803Z,16.15
2022-11-25T01:15:46.457Z,14.35
2022-11-25T01:18:17.379Z,15.80
2022-11-25T01:20:48.285Z,18.15
2022-11-25T01:23:17.627Z,12.82
2022-11-25T01:25:46.365Z,21.17
2022-11-25T01:28:15.241Z,16.42
2022-11-25T01:30:59.623Z,12.30
2022-11-25T01:33:48.523Z,8.80
2022-11-25T01:36:35.323Z,21.23
2022-11-25T01:39:31.665Z,14.80
2022-11-25T01:42:01.475Z,10.98
2022-11-25T01:44:33.583Z,11.32
2022-11-25T01:47:04.410Z,10.32
2022-11-25T01:49:45.512Z,7.32
2022-11-25T01:52:32.666Z,15.90
2022-11-25T01:55:03.225Z,8.70
2022-11-25T01:57:38.720Z,13.30
2022-11-25T02:00:21.808Z,18.23
2022-11-25T02:03:11.757Z,18.70
2022-11-25T02:05:59.919Z,14.55
2022-11-25T02:08:43.094Z,12.60
2022-11-25T02:11:15.658Z,9.55
2022-11-25T02:13:45.781Z,14.30
2022-11-25T02:16:14.546Z,10.52
2022-11-25T02:18:43.057Z,11.32
2022-11-25T02:21:11.814Z,11.85
2022-11-25T02:23:40.950Z,11.73
2022-11-25T02:26:14.395Z,9.70
2022-11-25T02:28:48.708Z,12.38
2022-11-25T02:31:25.422Z,12.30
2022-11-25T02:33:54.252Z,7.05
2022-11-25T02:36:25.189Z,10.63
2022-11-25T02:39:01.631Z,12.13
2022-11-25T02:41:37.864Z,10.98
2022-11-25T02:44:08.293Z,8.60
2022-11-25T02:46:45.009Z,11.02
2022-11-25T02:49:21.181Z,14.38
2022-11-25T02:51:56.550Z,12.55
2022-11-25T02:54:27.852Z,9.57
2022-11-25T02:56:58.873Z,10.80
2022-11-25T02:59:28.203Z,9.43
2022-11-25T03:01:59.343Z,11.52
2022-11-25T03:04:29.996Z,17.63
2022-11-25T03:06:58.803Z,14.88
2022-11-25T03:09:27.390Z,13.48
2022-11-25T03:12:14.974Z,9.23
2022-11-25T03:15:01.828Z,6.30
2022-11-25T03:17:45.832Z,9.60
2022-11-25T03:20:31.019Z,14.55
2022-11-25T03:23:15.818Z,11.18
2022-11-25T03:25:44.363Z,15.98
2022-11-25T03:28:14.050Z,9.85
2022-11-25T03:30:44.987Z,9.88
2022-11-25T03:33:26.776Z,10.05
2022-11-25T03:35:56.918Z,10.55
2022-11-25T03:38:43.724Z,14.23
2022-11-25T03:41:16.604Z,7.10
2022-11-25T03:43:57.936Z,17.00
2022-11-25T03:46:45.666Z,14.18
2022-11-25T03:49:24.890Z,14.27
2022-11-25T03:51:55.746Z,10.85
2022-11-25T03:54:26.553Z,7.20
2022-11-25T03:57:54.954Z,7.68
2022-11-25T04:00:31.030Z,14.90
2022-11-25T04:03:21.105Z,12.38
2022-11-25T04:05:50.271Z,12.07
2022-11-25T04:08:29.459Z,13.32
2022-11-25T04:11:08.642Z,15.98
2022-11-25T04:13:51.850Z,11.88
2022-11-25T04:16:27.555Z,17.20
2022-11-25T04:18:58.145Z,17.13
2022-11-25T04:21:44.981Z,21.08
2022-11-25T04:24:24.940Z,11.55
2022-11-25T04:27:08.596Z,12.80
2022-11-25T04:29:37.823Z,7.22
2022-11-25T04:32:11.224Z,18.10
2022-11-25T04:34:41.119Z,14.57
2022-11-25T04:37:10.457Z,15.57
2022-11-25T04:39:56.851Z,14.65
2022-11-25T04:42:34.424Z,22.60
2022-11-25T04:45:23.580Z,23.40
2022-11-25T04:48:09.814Z,18.90
2022-11-25T04:50:58.181Z,15.05
2022-11-25T04:53:46.650Z,19.60
2022-11-25T04:56:22.597Z,9.05
2022-11-25T04:59:26.801Z,17.80
2022-11-25T05:01:56.711Z,16.00
2022-11-25T05:04:36.562Z,16.70
2022-11-25T05:07:08.256Z,25.13
2022-11-25T05:09:37.381Z,13.50
2022-11-25T05:12:24.597Z,19.30
2022-11-25T05:17:46.129Z,9.35
2022-11-25T05:20:16.174Z,16.60
2022-11-25T05:22:48.828Z,18.98
2022-11-25T05:25:27.124Z,15.00
2022-11-25T05:28:40.814Z,13.13
2022-11-25T05:31:23.993Z,13.47
2022-11-25T05:33:52.666Z,13.25
2022-11-25T05:36:22.977Z,18.98
2022-11-25T05:38:53.835Z,22.35
2022-11-25T05:41:35.095Z,7.68
2022-11-25T05:44:05.310Z,16.20
2022-11-25T05:46:36.225Z,16.08
2022-11-25T05:49:06.042Z,24.75
2022-11-25T05:51:34.871Z,25.27
2022-11-25T05:54:21.263Z,15.35
2022-11-25T05:57:04.342Z,14.48
2022-11-25T05:59:54.580Z,16.98
2022-11-25T06:02:53.572Z,15.40
2022-11-25T06:05:23.994Z,11.43
2022-11-25T06:08:09.206Z,15.32
2022-11-25T06:10:50.599Z,26.45
2022-11-25T06:13:31.320Z,12.05
2022-11-25T06:16:06.306Z,18.83
2022-11-25T06:18:41.333Z,21.98
2022-11-25T06:21:11.686Z,19.08
2022-11-25T06:23:40.447Z,22.65
2022-11-25T06:26:16.395Z,23.42
2022-11-25T06:28:45.161Z,21.42
2022-11-25T06:31:20.278Z,23.30
2022-11-25T06:34:09.258Z,20.92
2022-11-25T06:36:50.999Z,28.63
2022-11-25T06:39:23.712Z,18.38
2022-11-25T06:42:02.863Z,16.48
2022-11-25T06:44:38.918Z,16.48
2022-11-25T06:47:21.197Z,18.50
2022-11-25T06:49:50.497Z,20.10
2022-11-25T06:52:19.029Z,17.10
2022-11-25T06:54:49.945Z,23.08
2022-11-25T06:57:20.041Z,15.45
2022-11-25T06:59:52.360Z,23.85
2022-11-25T07:02:24.884Z,15.93
2022-11-25T07:04:53.814Z,29.83
2022-11-25T07:07:25.333Z,14.27
2022-11-25T07:09:57.626Z,16.40
2022-11-25T07:12:40.083Z,29.63
2022-11-25T07:15:26.960Z,22.52
2022-11-25T07:18:15.010Z,17.60
2022-11-25T07:21:05.033Z,14.68
2022-11-25T07:23:53.311Z,29.30
2022-11-25T07:26:36.276Z,19.90
2022-11-25T07:29:23.523Z,20.40
2022-11-25T07:32:12.776Z,27.95
2022-11-25T07:34:53.195Z,15.18
2022-11-25T07:37:39.664Z,24.30
2022-11-25T07:40:10.426Z,26.00
2022-11-25T07:42:44.051Z,14.60
2022-11-25T07:45:14.582Z,15.10
2022-11-25T07:47:49.134Z,14.05
2022-11-25T07:50:31.693Z,12.10
2022-11-25T07:53:04.579Z,14.35
2022-11-25T07:55:37.734Z,13.88
2022-11-25T07:58:06.401Z,21.73
2022-11-25T08:00:35.475Z,12.80
2022-11-25T08:03:23.936Z,13.38
2022-11-25T08:06:13.297Z,22.20
2022-11-25T08:08:55.718Z,17.52
2022-11-25T08:11:26.124Z,22.05
2022-11-25T08:13:55.609Z,14.90
2022-11-25T08:16:25.097Z,12.35
2022-11-25T08:18:55.167Z,19.23
2022-11-25T08:21:26.536Z,27.17
2022-11-25T08:24:05.640Z,23.83
2022-11-25T08:26:38.344Z,19.38
2022-11-25T08:29:09.400Z,22.70
2022-11-25T08:31:50.190Z,12.90
2022-11-25T08:34:33.531Z,19.52
2022-11-25T08:37:20.049Z,18.38
2022-11-25T08:39:58.282Z,29.05
2022-11-25T08:42:35.787Z,16.13
2022-11-25T08:45:13.772Z,16.67
2022-11-25T08:48:01.419Z,19.60
2022-11-25T08:50:48.447Z,15.95
2022-11-25T08:53:20.781Z,19.77
2022-11-25T08:55:50.413Z,9.73
2022-11-25T08:58:22.130Z,18.60
2022-11-25T09:00:50.841Z,21.95
2022-11-25T09:03:34.424Z,12.82
2022-11-25T09:06:03.014Z,20.17
2022-11-25T09:08:33.705Z,29.80
2022-11-25T09:11:02.514Z,24.83
2022-11-25T09:13:33.416Z,22.73
2022-11-25T09:18:45.793Z,12.52
2022-11-25T09:21:16.465Z,19.77
2022-11-25T09:23:55.027Z,22.75
2022-11-25T09:26:42.252Z,16.35
2022-11-25T09:29:25.253Z,9.07
2022-11-25T09:32:04.571Z,17.13
2022-11-25T09:34:34.496Z,14.40
2022-11-25T09:37:03.583Z,11.45
2022-11-25T09:39:35.680Z,14.80
2022-11-25T09:42:25.511Z,13.38
2022-11-25T09:45:25.482Z,11.82
2022-11-25T09:48:14.232Z,14.93
2022-11-25T09:50:44.760Z,14.93
2022-11-25T09:53:12.972Z,16.88
2022-11-25T09:55:47.777Z,14.75
2022-11-25T09:58:21.987Z,11.93
2022-11-25T10:00:51.225Z,14.25
2022-11-25T10:03:29.300Z,25.55
2022-11-25T10:06:04.442Z,20.55
2022-11-25T10:08:51.584Z,14.98
2022-11-25T10:11:43.474Z,20.02
2022-11-25T10:14:11.913Z,26.65
2022-11-25T10:16:57.680Z,12.02
2022-11-25T10:19:48.111Z,19.80
2022-11-25T10:22:19.967Z,12.77
2022-11-25T10:24:52.413Z,11.85
2022-11-25T10:27:48.060Z,19.80
2022-11-25T10:30:33.854Z,20.88
2022-11-25T10:33:21.837Z,15.55
2022-11-25T10:36:13.051Z,24.42
2022-11-25T10:39:00.233Z,20.58
2022-11-25T10:41:46.524Z,28.25
2022-11-25T10:44:20.471Z,32.40
2022-11-25T10:47:18.813Z,20.35
2022-11-25T10:49:56.672Z,13.55
2022-11-25T10:52:39.845Z,10.60
2022-11-25T10:55:16.364Z,16.42
2022-11-25T10:58:21.267Z,13.95
2022-11-25T11:01:04.881Z,8.45
2022-11-25T11:06:31.750Z,16.42
2022-11-25T11:09:05.030Z,14.65
2022-11-25T11:11:48.881Z,19.38
2022-11-25T11:14:22.917Z,10.48
2022-11-25T11:17:00.891Z,12.15
2022-11-25T11:19:39.412Z,11.27
2022-11-25T11:22:43.778Z,16.13
2022-11-25T11:25:21.552Z,24.98
2022-11-25T11:27:51.276Z,13.68
2022-11-25T11:30:33.361Z,13.32
2022-11-25T11:33:34.466Z,15.32
2022-11-25T11:36:15.690Z,9.52
2022-11-25T11:38:54.545Z,12.00
2022-11-25T11:41:22.830Z,17.92
2022-11-25T11:44:09.980Z,16.33
2022-11-25T11:46:38.294Z,16.40
2022-11-25T11:49:06.558Z,16.75
2022-11-25T11:51:53.821Z,21.80
2022-11-25T11:54:22.612Z,8.80
2022-11-25T11:56:59.041Z,8.52
2022-11-25T11:59:28.478Z,9.55
2022-11-25T12:02:02.824Z,13.23
2022-11-25T12:04:34.893Z,26.00
2022-11-25T12:07:21.459Z,19.20
2022-11-25T12:10:02.068Z,22.15
2022-11-25T12:12:52.017Z,15.35
2022-11-25T12:15:27.175Z,11.30
2022-11-25T12:18:13.449Z,18.17
2022-11-25T12:21:03.348Z,13.00
2022-11-25T12:23:59.440Z,11.00
2022-11-25T12:26:46.183Z,10.52
2022-11-25T12:29:17.708Z,12.27
2022-11-25T12:31:57.464Z,13.35
2022-11-25T12:34:40.998Z,6.72
2022-11-25T12:37:15.301Z,12.00
2022-11-25T12:39:49.797Z,18.70
2022-11-25T12:42:21.863Z,16.58
2022-11-25T12:44:58.462Z,17.00
2022-11-25T12:47:27.093Z,9.32
2022-11-25T12:50:01.758Z,8.18
2022-11-25T12:52:48.846Z,9.55
2022-11-25T12:55:19.738Z,13.35
2022-11-25T12:57:57.692Z,13.85
2022-11-25T13:00:44.478Z,9.85
2022-11-25T13:03:15.740Z,7.22
2022-11-25T13:05:55.848Z,13.68
2022-11-25T13:08:42.353Z,15.02
2022-11-25T13:11:19.589Z,10.70
2022-11-25T13:13:50.473Z,16.90
2022-11-25T13:16:20.699Z,15.63
2022-11-25T13:18:49.627Z,18.45
2022-11-25T13:21:18.916Z,6.68
2022-11-25T13:23:52.202Z,10.90
2022-11-25T13:26:43.373Z,12.95
2022-11-25T13:29:15.876Z,14.10
2022-11-25T13:32:01.255Z,8.27
2022-11-25T13:34:29.927Z,16.90
2022-11-25T13:36:59.690Z,18.20
2022-11-25T13:39:32.203Z,14.00
2022-11-25T13:42:19.576Z,7.43
2022-11-25T13:44:53.733Z,27.92
2022-11-25T13:47:41.212Z,11.00
2022-11-25T13:50:12.289Z,14.35
2022-11-25T13:55:32.265Z,11.85
2022-11-25T13:58:21.003Z,12.07
2022-11-25T14:00:59.497Z,19.45
2022-11-25T14:03:33.819Z,17.90
2022-11-25T14:06:27.465Z,16.30
2022-11-25T14:08:57.605Z,6.07
2022-11-25T14:11:44.263Z,6.50
2022-11-25T14:14:46.494Z,7.22
2022-11-25T14:17:36.529Z,9.60
2022-11-25T14:20:24.446Z,6.50
2022-11-25T14:22:57.559Z,15.23
2022-11-25T14:25:30.318Z,9.27
2022-11-25T14:28:09.087Z,11.98
2022-11-25T14:30:51.868Z,7.95
2022-11-25T14:33:49.837Z,23.67
2022-11-25T14:36:26.410Z,14.80
2022-11-25T14:39:12.072Z,8.98
2022-11-25T14:44:21.565Z,12.65
2022-11-25T14:46:59.798Z,10.98
2022-11-25T14:50:18.950Z,9.82
2022-11-25T14:53:06.110Z,11.80
2022-11-25T14:55:34.750Z,11.88
2022-11-25T14:58:19.652Z,10.82
2022-11-25T15:01:05.137Z,8.75
2022-11-25T15:03:52.563Z,32.30
2022-11-25T15:06:42.591Z,11.90
2022-11-25T15:09:23.308Z,17.17
2022-11-25T15:12:02.728Z,15.20
2022-11-25T15:14:38.804Z,11.45
2022-11-25T15:17:08.662Z,18.83
2022-11-25T15:19:38.518Z,14.35
2022-11-25T15:22:28.225Z,15.25
2022-11-25T15:25:06.962Z,9.75
2022-11-25T15:27:47.732Z,9.45
2022-11-25T15:30:23.793Z,7.30
2022-11-25T15:33:14.351Z,14.18
2022-11-25T15:35:43.357Z,6.63
2022-11-25T15:38:41.021Z,9.25
2022-11-25T15:41:23.062Z,14.32
2022-11-25T15:43:53.437Z,10.73
2022-11-25T15:46:26.483Z,14.85
2022-11-25T15:49:04.009Z,7.30
2022-11-25T15:51:41.589Z,14.32
2022-11-25T15:54:15.943Z,12.88
2022-11-25T15:56:47.601Z,12.98
2022-11-25T15:59:35.283Z,6.47
2022-11-25T16:02:04.369Z,10.32
2022-11-25T16:04:33.362Z,13.10
2022-11-25T16:07:02.532Z,6.10
2022-11-25T16:09:34.000Z,25.75
2022-11-25T16:12:10.182Z,21.13
2022-11-25T16:14:38.711Z,13.27
2022-11-25T16:17:11.066Z,6.13
2022-11-25T16:19:42.126Z,4.40
2022-11-25T16:22:13.787Z,15.32
2022-11-25T16:24:55.969Z,12.50
2022-11-25T16:27:29.274Z,14.98
2022-11-25T16:30:06.233Z,9.18
2022-11-25T16:32:53.880Z,13.10
2022-11-25T16:35:29.624Z,23.80
2022-11-25T16:38:06.238Z,8.25
2022-11-25T16:40:37.791Z,7.78
2022-11-25T16:43:16.944Z,7.90
2022-11-25T16:45:49.505Z,6.03
2022-11-25T16:48:22.581Z,20.00
2022-11-25T16:50:53.856Z,13.40
2022-11-25T16:53:32.736Z,11.55
2022-11-25T16:56:05.270Z,14.02
2022-11-25T16:58:51.625Z,15.10
2022-11-25T17:01:34.523Z,11.35
2022-11-25T17:04:15.486Z,9.20
2022-11-25T17:07:16.510Z,19.63
2022-11-25T17:09:50.108Z,12.27
2022-11-25T17:12:31.745Z,12.80
2022-11-25T17:15:17.780Z,17.25
2022-11-25T17:18:05.381Z,12.98
2022-11-25T17:20:50.536Z,9.70
2022-11-25T17:23:31.685Z,17.98
2022-11-25T17:26:20.549Z,12.95
2022-11-25T17:29:09.827Z,11.70
2022-11-25T17:31:53.721Z,21.20
2022-11-25T17:34:27.571Z,12.45
2022-11-25T17:36:59.549Z,15.65
2022-11-25T17:39:33.619Z,13.55
2022-11-25T17:42:04.606Z,12.60
2022-11-25T17:44:39.975Z,10.80
2022-11-25T17:47:14.980Z,10.70
2022-11-25T17:49:45.813Z,21.17
2022-11-25T17:52:14.278Z,10.15
2022-11-25T17:54:43.379Z,15.27
2022-11-25T17:57:16.998Z,12.40
2022-11-25T17:59:45.502Z,13.00
2022-11-25T18:02:18.364Z,11.93
2022-11-25T18:05:03.322Z,6.97
2022-11-25T18:07:51.601Z,10.20
2022-11-25T18:13:07.677Z,13.32
2022-11-25T18:15:42.038Z,18.58
2022-11-25T18:18:29.736Z,17.60
2022-11-25T18:21:10.285Z,17.38
2022-11-25T18:23:49.903Z,14.25
2022-11-25T18:26:31.155Z,17.40
2022-11-25T18:29:20.225Z,10.25
2022-11-25T18:31:56.586Z,6.50
2022-11-25T18:34:41.100Z,21.58
2022-11-25T18:37:13.075Z,19.83
2022-11-25T18:40:01.765Z,24.50
2022-11-25T18:42:51.534Z,19.13
2022-11-25T18:45:39.573Z,28.75
2022-11-25T18:48:25.202Z,13.43
2022-11-25T18:51:12.513Z,9.00
2022-11-25T18:53:51.252Z,15.68
2022-11-25T18:56:34.716Z,5.63
2022-11-25T18:59:05.680Z,5.93
2022-11-25T19:01:35.368Z,9.20
2022-11-25T19:04:06.800Z,6.88
2022-11-25T19:06:35.868Z,14.57
2022-11-25T19:09:05.094Z,4.43
2022-11-25T19:11:53.546Z,9.15
2022-11-25T19:14:37.126Z,10.00
2022-11-25T19:17:24.310Z,12.93
2022-11-25T19:19:53.155Z,12.75
2022-11-25T19:22:24.710Z,15.13
2022-11-25T19:24:53.960Z,13.10
2022-11-25T19:27:24.473Z,9.63
2022-11-25T19:29:54.295Z,13.23
2022-11-25T19:32:25.681Z,7.85
2022-11-25T19:37:30.106Z,14.50
2022-11-25T19:39:58.663Z,24.02
2022-11-25T19:42:31.789Z,22.67
2022-11-25T19:45:08.156Z,22.55
2022-11-25T19:47:55.776Z,35.08
2022-11-25T19:50:43.896Z,37.70
2022-11-25T19:53:20.140Z,52.63
2022-11-25T19:58:19.215Z,24.55
2022-11-25T20:00:51.074Z,21.95
2022-11-25T20:03:32.218Z,26.60
2022-11-25T20:06:05.629Z,30.08
2022-11-25T20:08:36.560Z,27.95
2022-11-25T20:11:05.043Z,26.20
2022-11-25T20:13:34.563Z,20.02
2022-11-25T20:16:05.774Z,25.20
2022-11-25T20:18:35.747Z,20.02
2022-11-25T20:21:06.693Z,22.25
2022-11-25T20:23:46.480Z,23.60
2022-11-25T20:26:28.214Z,21.02
2022-11-25T20:29:18.981Z,28.17
2022-11-25T20:31:56.373Z,30.60
2022-11-25T20:34:28.407Z,23.80
2022-11-25T20:37:23.377Z,20.40
2022-11-25T20:40:14.352Z,21.60
2022-11-25T20:43:00.715Z,20.08
2022-11-25T20:45:35.513Z,18.23
2022-11-25T20:48:17.417Z,22.45
2022-11-25T20:50:55.721Z,29.33
2022-11-25T20:53:30.343Z,29.23
2022-11-25T20:56:00.196Z,26.35
2022-11-25T20:58:30.429Z,24.60
2022-11-25T21:01:01.868Z,21.23
2022-11-25T21:03:40.972Z,29.13
2022-11-25T21:06:21.122Z,45.05
2022-11-25T21:08:59.386Z,49.38
2022-11-25T21:11:36.389Z,35.25
2022-11-25T21:14:18.916Z,37.67
2022-11-25T21:16:51.197Z,31.65
2022-11-25T21:19:23.360Z,32.53
2022-11-25T21:21:52.780Z,20.98
2022-11-25T21:24:41.809Z,26.85
2022-11-25T21:29:55.845Z,32.97
2022-11-25T21:32:27.368Z,22.55
2022-11-25T21:35:08.463Z,25.83
2022-11-25T21:37:56.149Z,28.40
2022-11-25T21:40:27.960Z,26.13
2022-11-25T21:42:56.701Z,36.53
2022-11-25T21:45:28.436Z,37.22
2022-11-25T21:48:23.523Z,70.35
2022-11-25T21:50:58.688Z,66.60
2022-11-25T21:53:37.750Z,51.80
2022-11-25T21:56:23.338Z,65.65
2022-11-25T21:58:53.019Z,56.22
2022-11-25T22:01:28.695Z,84.25
2022-11-25T22:04:13.720Z,47.80
2022-11-25T22:09:22.219Z,30.58
2022-11-25T22:11:52.987Z,36.72
2022-11-25T22:14:34.016Z,47.90
2022-11-25T22:17:05.141Z,27.88
2022-11-25T22:19:48.018Z,21.75
2022-11-25T22:22:26.817Z,22.63
2022-11-25T22:25:01.975Z,25.25
2022-11-25T22:27:47.206Z,28.70
2022-11-25T22:30:21.165Z,22.33
2022-11-25T22:33:10.812Z,18.85
2022-11-25T22:35:43.399Z,23.80
2022-11-25T22:38:14.694Z,25.30
2022-11-25T22:40:55.659Z,20.88
2022-11-25T22:43:46.578Z,24.65
2022-11-25T22:46:21.608Z,20.95
2022-11-25T22:49:02.880Z,22.35
2022-11-25T22:51:31.895Z,29.58
2022-11-25T22:54:03.468Z,28.33
2022-11-25T22:56:32.395Z,25.75
2022-11-25T22:59:01.351Z,26.63
2022-11-25T23:01:30.878Z,31.10
2022-11-25T23:04:03.049Z,32.95
2022-11-25T23:06:45.084Z,20.98
2022-11-25T23:09:35.019Z,32.90
2022-11-25T23:12:18.657Z,24.38
2022-11-25T23:14:48.320Z,32.30
2022-11-25T23:17:27.163Z,36.80
2022-11-25T23:20:19.910Z,35.83
2022-11-25T23:23:11.567Z,29.73
2022-11-25T23:25:56.790Z,30.58
2022-11-25T23:28:44.452Z,22.52
2022-11-25T23:31:34.157Z,23.42
2022-11-25T23:34:23.704Z,32.20
2022-11-25T23:36:57.231Z,31.40
2022-11-25T23:39:27.451Z,31.05
2022-11-25T23:41:56.537Z,26.35
2022-11-25T23:44:31.617Z,21.95
2022-11-25T23:47:02.127Z,36.22
2022-11-25T23:49:35.001Z,27.67
2022-11-25T23:52:07.750Z,43.25
2022-11-25T23:54:41.185Z,29.23
2022-11-25T23:57:13.903Z,28.10
2022-11-25T23:59:43.213Z,32.67
